createdAt,value
2017-12-01T00:02:16.496Z,89.40
2017-12-01T00:04:42.802Z,89.30
2017-12-01T00:07:09.101Z,89.20
2017-12-01T00:09:36.298Z,89.30
2017-12-01T00:12:02.588Z,89.20
2017-12-01T00:14:28.908Z,89.20
2017-12-01T00:16:55.274Z,89.60
2017-12-01T00:19:21.590Z,89.80
2017-12-01T00:21:47.854Z,90.00
2017-12-01T00:24:14.136Z,89.80
2017-12-01T00:26:41.145Z,89.30
2017-12-01T00:29:08.325Z,89.80
2017-12-01T00:31:34.644Z,89.60
2017-12-01T00:34:01.697Z,89.80
2017-12-01T00:36:28.718Z,89.70
2017-12-01T00:38:55.191Z,89.60
2017-12-01T00:41:21.591Z,89.80
2017-12-01T00:43:48.703Z,90.00
2017-12-01T00:46:15.032Z,90.00
2017-12-01T00:48:41.806Z,90.00
2017-12-01T00:51:08.839Z,90.10
2017-12-01T00:53:35.267Z,90.10
2017-12-01T00:56:01.565Z,90.10
2017-12-01T00:58:27.917Z,90.10
2017-12-01T01:00:54.203Z,90.10
2017-12-01T01:03:21.243Z,90.30
2017-12-01T01:05:48.212Z,90.30
2017-12-01T01:08:14.490Z,90.30
2017-12-01T01:10:41.531Z,90.40
2017-12-01T01:13:07.799Z,90.40
2017-12-01T01:15:34.831Z,90.30
2017-12-01T01:18:01.160Z,90.30
2017-12-01T01:20:27.466Z,90.30
2017-12-01T01:22:53.738Z,90.40
2017-12-01T01:25:20.037Z,90.40
2017-12-01T01:27:46.332Z,90.50
2017-12-01T01:30:12.608Z,90.90
2017-12-01T01:32:39.657Z,91.10
2017-12-01T01:35:06.305Z,90.90
2017-12-01T01:37:33.326Z,91.00
2017-12-01T01:40:00.352Z,90.90
2017-12-01T01:42:26.630Z,90.80
2017-12-01T01:44:53.642Z,90.90
2017-12-01T01:47:19.929Z,90.90
2017-12-01T01:49:53.428Z,90.80
2017-12-01T01:52:19.682Z,90.90
2017-12-01T01:54:45.934Z,91.00
2017-12-01T01:57:12.189Z,90.90
2017-12-01T01:59:39.334Z,91.20
2017-12-01T02:02:05.932Z,90.90
2017-12-01T02:04:32.245Z,90.80
2017-12-01T02:06:58.529Z,91.00
2017-12-01T02:09:24.815Z,91.00
2017-12-01T02:11:51.079Z,90.80
2017-12-01T02:14:18.122Z,90.80
2017-12-01T02:16:45.178Z,91.00
2017-12-01T02:19:12.241Z,91.10
2017-12-01T02:21:38.503Z,91.10
2017-12-01T02:24:04.775Z,90.90
2017-12-01T02:26:31.076Z,90.90
2017-12-01T02:28:57.326Z,91.00
2017-12-01T02:31:24.491Z,91.00
2017-12-01T02:33:50.942Z,91.00
2017-12-01T02:36:17.315Z,90.90
2017-12-01T02:38:44.476Z,90.90
2017-12-01T02:41:10.751Z,90.90
2017-12-01T02:43:37.053Z,91.20
2017-12-01T02:46:03.347Z,91.30
2017-12-01T02:48:29.603Z,91.30
2017-12-01T02:50:56.565Z,91.30
2017-12-01T02:53:23.535Z,91.30
2017-12-01T02:55:49.911Z,91.30
2017-12-01T02:58:16.943Z,91.20
2017-12-01T03:00:43.243Z,91.20
2017-12-01T03:03:10.603Z,91.40
2017-12-01T03:05:36.884Z,91.30
2017-12-01T03:08:03.892Z,91.70
2017-12-01T03:10:30.195Z,91.50
2017-12-01T03:12:56.452Z,91.40
2017-12-01T03:15:22.806Z,91.20
2017-12-01T03:17:49.288Z,91.60
2017-12-01T03:20:15.524Z,91.20
2017-12-01T03:22:41.908Z,91.30
2017-12-01T03:25:08.914Z,91.80
2017-12-01T03:27:35.223Z,91.50
2017-12-01T03:30:01.502Z,91.50
2017-12-01T03:32:27.841Z,91.50
2017-12-01T03:34:54.100Z,91.50
2017-12-01T03:37:20.409Z,91.40
2017-12-01T03:39:46.680Z,91.50
2017-12-01T03:42:12.920Z,91.50
2017-12-01T03:44:39.271Z,91.60
2017-12-01T03:47:05.664Z,91.60
2017-12-01T03:49:32.013Z,91.60
2017-12-01T03:51:58.404Z,91.60
2017-12-01T03:54:25.459Z,91.70
2017-12-01T03:56:51.880Z,91.70
2017-12-01T03:59:18.267Z,91.80
2017-12-01T04:01:44.525Z,91.90
2017-12-01T04:04:10.799Z,91.80
2017-12-01T04:06:37.099Z,92.10
2017-12-01T04:09:04.471Z,92.20
2017-12-01T04:11:30.748Z,92.00
2017-12-01T04:13:57.011Z,92.00
2017-12-01T04:16:23.280Z,92.00
2017-12-01T04:18:49.638Z,92.30
2017-12-01T04:21:15.953Z,92.60
2017-12-01T04:23:42.202Z,92.30
2017-12-01T04:26:08.487Z,92.40
2017-12-01T04:28:34.715Z,92.40
2017-12-01T04:31:00.933Z,92.30
2017-12-01T04:33:27.233Z,92.30
2017-12-01T04:35:54.218Z,92.50
2017-12-01T04:38:23.480Z,92.40
2017-12-01T04:40:50.678Z,92.50
2017-12-01T04:43:16.943Z,92.40
2017-12-01T04:45:43.930Z,92.60
2017-12-01T04:48:10.382Z,92.60
2017-12-01T04:50:37.494Z,92.80
2017-12-01T04:53:04.598Z,92.80
2017-12-01T04:55:31.880Z,92.80
2017-12-01T04:57:58.180Z,92.90
2017-12-01T05:00:24.654Z,92.90
2017-12-01T05:02:51.663Z,92.90
2017-12-01T05:05:17.909Z,92.90
2017-12-01T05:07:44.223Z,92.90
2017-12-01T05:10:10.455Z,92.90
2017-12-01T05:12:36.778Z,92.80
2017-12-01T05:15:03.021Z,92.80
2017-12-01T05:17:29.343Z,92.80
2017-12-01T05:19:55.599Z,92.60
2017-12-01T05:22:21.902Z,92.70
2017-12-01T05:24:48.190Z,92.80
2017-12-01T05:27:14.463Z,92.80
2017-12-01T05:29:40.766Z,92.80
2017-12-01T05:32:07.028Z,92.80
2017-12-01T05:34:33.277Z,92.60
2017-12-01T05:36:59.533Z,92.70
2017-12-01T05:39:25.779Z,92.50
2017-12-01T05:41:52.392Z,92.80
2017-12-01T05:44:18.674Z,92.50
2017-12-01T05:46:44.925Z,92.70
2017-12-01T05:49:12.000Z,93.10
2017-12-01T05:51:38.262Z,93.00
2017-12-01T05:54:04.581Z,93.20
2017-12-01T05:56:30.990Z,93.10
2017-12-01T05:58:57.322Z,93.10
2017-12-01T06:01:23.660Z,93.00
2017-12-01T06:03:50.959Z,93.20
2017-12-01T06:06:17.267Z,93.30
2017-12-01T06:08:43.645Z,93.20
2017-12-01T06:11:10.026Z,93.30
2017-12-01T06:13:37.223Z,93.40
2017-12-01T06:16:04.222Z,93.60
2017-12-01T06:18:30.550Z,93.50
2017-12-01T06:20:56.900Z,93.60
2017-12-01T06:23:23.979Z,93.50
2017-12-01T06:25:50.426Z,93.50
2017-12-01T06:28:16.699Z,93.40
2017-12-01T06:30:43.094Z,93.60
2017-12-01T06:33:09.369Z,93.60
2017-12-01T06:35:35.645Z,93.70
2017-12-01T06:38:01.930Z,93.70
2017-12-01T06:40:29.125Z,94.00
2017-12-01T06:42:55.430Z,93.80
2017-12-01T06:45:22.490Z,93.80
2017-12-01T06:47:50.174Z,93.80
2017-12-01T06:50:17.507Z,93.70
2017-12-01T06:52:45.107Z,93.90
2017-12-01T06:55:11.383Z,93.80
2017-12-01T06:57:38.346Z,94.00
2017-12-01T07:00:04.631Z,93.90
2017-12-01T07:02:30.977Z,93.90
2017-12-01T07:04:57.945Z,93.60
2017-12-01T07:07:24.337Z,93.60
2017-12-01T07:09:50.670Z,93.60
2017-12-01T07:12:17.683Z,93.60
2017-12-01T07:14:43.902Z,93.60
2017-12-01T07:17:10.121Z,93.50
2017-12-01T07:19:36.390Z,93.50
2017-12-01T07:22:02.626Z,93.60
2017-12-01T07:24:28.826Z,93.80
2017-12-01T07:27:06.530Z,93.80
2017-12-01T07:29:32.772Z,93.70
2017-12-01T07:31:59.905Z,93.70
2017-12-01T07:34:26.244Z,93.70
2017-12-01T07:36:52.807Z,93.60
2017-12-01T07:39:19.816Z,93.50
2017-12-01T07:41:46.097Z,93.50
2017-12-01T07:44:19.158Z,93.50
2017-12-01T07:46:45.419Z,93.50
2017-12-01T07:49:11.739Z,93.50
2017-12-01T07:51:38.767Z,93.70
2017-12-01T07:54:05.074Z,93.60
2017-12-01T07:56:31.509Z,93.60
2017-12-01T07:58:57.740Z,93.60
2017-12-01T08:01:24.000Z,93.90
2017-12-01T08:03:51.000Z,93.40
2017-12-01T08:06:17.284Z,93.30
2017-12-01T08:08:43.530Z,93.60
2017-12-01T08:11:09.771Z,93.70
2017-12-01T08:13:36.062Z,93.70
2017-12-01T08:16:14.643Z,93.60
2017-12-01T08:18:48.195Z,93.70
2017-12-01T08:21:14.529Z,93.80
2017-12-01T08:23:53.160Z,93.90
2017-12-01T08:26:19.410Z,93.90
2017-12-01T08:28:45.785Z,93.80
2017-12-01T08:31:12.820Z,93.60
2017-12-01T08:33:39.146Z,93.50
2017-12-01T08:36:05.424Z,93.90
2017-12-01T08:38:31.639Z,93.50
2017-12-01T08:40:57.999Z,93.40
2017-12-01T08:43:31.034Z,93.40
2017-12-01T08:45:58.071Z,93.30
2017-12-01T08:48:24.309Z,93.20
2017-12-01T08:50:51.346Z,93.10
2017-12-01T08:53:18.356Z,93.00
2017-12-01T08:55:44.549Z,93.00
2017-12-01T08:58:11.086Z,93.20
2017-12-01T09:00:37.346Z,93.10
2017-12-01T09:03:03.639Z,93.30
2017-12-01T09:05:29.922Z,93.10
2017-12-01T09:07:56.168Z,93.00
2017-12-01T09:10:23.170Z,93.10
2017-12-01T09:12:49.478Z,93.10
2017-12-01T09:15:15.730Z,93.10
2017-12-01T09:17:42.034Z,92.90
2017-12-01T09:20:08.511Z,93.00
2017-12-01T09:22:34.800Z,92.80
2017-12-01T09:25:01.063Z,92.60
2017-12-01T09:27:27.432Z,92.60
2017-12-01T09:29:53.923Z,92.50
2017-12-01T09:32:20.266Z,92.40
2017-12-01T09:34:46.754Z,92.30
2017-12-01T09:37:13.170Z,92.50
2017-12-01T09:39:39.696Z,92.30
2017-12-01T09:42:06.011Z,92.40
2017-12-01T09:44:33.198Z,92.30
2017-12-01T09:46:59.605Z,92.30
2017-12-01T09:49:27.026Z,92.10
2017-12-01T09:51:54.122Z,92.20
2017-12-01T09:54:20.399Z,92.20
2017-12-01T09:56:46.938Z,91.80
2017-12-01T09:59:13.248Z,91.60
2017-12-01T10:01:39.795Z,91.70
2017-12-01T10:04:06.167Z,91.80
2017-12-01T10:06:32.501Z,91.90
2017-12-01T10:08:58.874Z,91.80
2017-12-01T10:11:25.090Z,91.90
2017-12-01T10:13:51.386Z,91.70
2017-12-01T10:16:18.375Z,91.60
2017-12-01T10:18:44.646Z,91.60
2017-12-01T10:21:10.996Z,91.50
2017-12-01T10:23:37.982Z,91.40
2017-12-01T10:26:04.310Z,91.30
2017-12-01T10:28:30.552Z,91.30
2017-12-01T10:30:56.833Z,91.10
2017-12-01T10:33:23.918Z,91.20
2017-12-01T10:35:52.843Z,91.20
2017-12-01T10:38:19.102Z,91.40
2017-12-01T10:40:46.130Z,91.40
2017-12-01T10:43:12.461Z,91.40
2017-12-01T10:45:38.861Z,91.40
2017-12-01T10:48:05.159Z,91.50
2017-12-01T10:50:32.399Z,91.40
2017-12-01T10:52:58.646Z,91.60
2017-12-01T10:55:24.875Z,91.90
2017-12-01T10:57:51.150Z,91.90
2017-12-01T11:00:17.473Z,91.90
2017-12-01T11:02:43.790Z,92.00
2017-12-01T11:05:10.139Z,92.00
2017-12-01T11:07:36.491Z,92.00
2017-12-01T11:10:03.676Z,92.10
2017-12-01T11:12:29.922Z,92.10
2017-12-01T11:14:56.159Z,92.20
2017-12-01T11:17:23.199Z,92.10
2017-12-01T11:19:50.213Z,92.10
2017-12-01T11:22:16.648Z,92.00
2017-12-01T11:24:43.061Z,91.80
2017-12-01T11:27:09.360Z,91.90
2017-12-01T11:29:35.644Z,91.50
2017-12-01T11:32:01.950Z,91.40
2017-12-01T11:34:28.256Z,91.70
2017-12-01T11:36:54.474Z,91.80
2017-12-01T11:39:20.748Z,91.90
2017-12-01T11:41:47.005Z,91.90
2017-12-01T11:44:13.272Z,92.00
2017-12-01T11:46:39.546Z,92.00
2017-12-01T11:49:05.774Z,91.60
2017-12-01T11:51:32.036Z,91.80
2017-12-01T11:53:58.298Z,91.80
2017-12-01T11:56:25.313Z,91.90
2017-12-01T11:58:51.658Z,91.80
2017-12-01T12:01:17.889Z,92.10
2017-12-01T12:03:44.119Z,91.90
2017-12-01T12:06:10.396Z,91.90
2017-12-01T12:08:36.953Z,91.90
2017-12-01T12:11:03.255Z,92.10
2017-12-01T12:13:29.578Z,92.00
2017-12-01T12:15:55.846Z,92.20
2017-12-01T12:18:22.330Z,92.00
2017-12-01T12:20:48.573Z,92.00
2017-12-01T12:23:14.854Z,91.90
2017-12-01T12:25:41.444Z,91.80
2017-12-01T12:28:07.826Z,91.60
2017-12-01T12:30:34.944Z,91.80
2017-12-01T12:33:01.170Z,91.80
2017-12-01T12:35:27.509Z,91.70
2017-12-01T12:37:53.783Z,91.70
2017-12-01T12:40:20.818Z,91.20
2017-12-01T12:42:47.283Z,91.20
2017-12-01T12:45:13.666Z,91.30
2017-12-01T12:47:40.026Z,91.30
2017-12-01T12:50:07.002Z,91.30
2017-12-01T12:52:40.379Z,91.30
2017-12-01T12:55:06.631Z,91.30
2017-12-01T12:57:35.461Z,91.20
2017-12-01T13:00:01.759Z,91.10
2017-12-01T13:02:28.001Z,91.30
2017-12-01T13:04:54.321Z,91.10
2017-12-01T13:07:20.567Z,91.30
2017-12-01T13:09:46.835Z,90.80
2017-12-01T13:12:13.197Z,90.30
2017-12-01T13:14:39.493Z,90.80
2017-12-01T13:17:05.780Z,90.80
2017-12-01T13:19:32.059Z,91.00
2017-12-01T13:21:58.318Z,91.20
2017-12-01T13:24:24.598Z,91.20
2017-12-01T13:26:51.589Z,90.80
2017-12-01T13:29:17.887Z,90.80
2017-12-01T13:31:44.278Z,90.90
2017-12-01T13:34:10.551Z,91.10
2017-12-01T13:36:36.842Z,90.90
2017-12-01T13:39:03.935Z,91.20
2017-12-01T13:41:30.274Z,91.20
2017-12-01T13:43:56.595Z,91.10
2017-12-01T13:46:22.914Z,91.00
2017-12-01T13:48:49.160Z,90.90
2017-12-01T13:51:15.529Z,90.80
2017-12-01T13:53:41.799Z,90.50
2017-12-01T13:56:08.077Z,90.80
2017-12-01T13:58:35.092Z,90.70
2017-12-01T14:01:01.320Z,90.60
2017-12-01T14:03:27.567Z,90.80
2017-12-01T14:05:53.838Z,90.80
2017-12-01T14:08:27.874Z,91.10
2017-12-01T14:10:54.138Z,91.00
2017-12-01T14:13:20.461Z,90.90
2017-12-01T14:15:46.786Z,90.80
2017-12-01T14:18:13.029Z,91.00
2017-12-01T14:20:39.278Z,91.10
2017-12-01T14:23:05.567Z,91.30
2017-12-01T14:25:31.822Z,91.00
2017-12-01T14:27:58.201Z,90.80
2017-12-01T14:30:24.491Z,91.00
2017-12-01T14:32:50.738Z,91.00
2017-12-01T14:35:18.011Z,91.30
2017-12-01T14:37:48.304Z,91.30
2017-12-01T14:40:15.746Z,91.20
2017-12-01T14:42:42.074Z,91.40
2017-12-01T14:45:08.487Z,91.60
2017-12-01T14:47:34.966Z,91.60
2017-12-01T14:50:01.367Z,91.30
2017-12-01T14:52:27.687Z,91.30
2017-12-01T14:54:53.972Z,91.20
2017-12-01T14:57:21.063Z,91.20
2017-12-01T14:59:47.490Z,91.40
2017-12-01T15:02:13.744Z,91.20
2017-12-01T15:04:39.997Z,91.30
2017-12-01T15:07:06.983Z,91.60
2017-12-01T15:09:33.378Z,91.60
2017-12-01T15:12:00.545Z,91.70
2017-12-01T15:14:26.754Z,91.70
2017-12-01T15:16:53.734Z,91.80
2017-12-01T15:19:20.000Z,91.90
2017-12-01T15:21:47.241Z,92.20
2017-12-01T15:24:20.535Z,92.20
2017-12-01T15:26:47.671Z,92.60
2017-12-01T15:29:13.969Z,92.60
2017-12-01T15:31:40.208Z,92.40
2017-12-01T15:34:06.463Z,92.70
2017-12-01T15:36:32.753Z,92.90
2017-12-01T15:38:59.827Z,93.00
2017-12-01T15:41:26.223Z,93.00
2017-12-01T15:43:52.490Z,92.70
2017-12-01T15:46:18.777Z,93.00
2017-12-01T15:48:45.830Z,93.40
2017-12-01T15:51:12.915Z,93.40
2017-12-01T15:53:39.238Z,93.60
2017-12-01T15:56:05.507Z,93.40
2017-12-01T15:58:32.569Z,93.40
2017-12-01T16:00:59.658Z,93.50
2017-12-01T16:03:25.990Z,93.50
2017-12-01T16:05:52.357Z,93.30
2017-12-01T16:08:18.676Z,93.50
2017-12-01T16:10:45.101Z,93.10
2017-12-01T16:13:11.854Z,93.40
2017-12-01T16:15:38.298Z,93.40
2017-12-01T16:18:05.131Z,93.30
2017-12-01T16:20:32.365Z,93.30
2017-12-01T16:22:58.724Z,93.20
2017-12-01T16:25:25.177Z,93.00
2017-12-01T16:27:51.507Z,93.10
2017-12-01T16:30:18.747Z,93.30
2017-12-01T16:32:51.196Z,93.20
2017-12-01T16:35:12.742Z,93.30
2017-12-01T16:37:40.642Z,93.50
2017-12-01T16:40:07.144Z,93.50
2017-12-01T16:42:34.164Z,93.40
2017-12-01T16:45:00.453Z,93.30
2017-12-01T16:47:26.734Z,93.50
2017-12-01T16:49:54.002Z,93.50
2017-12-01T16:52:20.243Z,93.60
2017-12-01T16:54:46.513Z,93.50
2017-12-01T16:57:12.807Z,93.30
2017-12-01T16:59:39.250Z,93.10
2017-12-01T17:02:05.567Z,93.20
2017-12-01T17:04:31.842Z,93.00
2017-12-01T17:06:58.154Z,92.80
2017-12-01T17:09:24.417Z,92.90
2017-12-01T17:11:50.660Z,93.10
2017-12-01T17:14:17.688Z,92.90
2017-12-01T17:16:44.003Z,92.90
2017-12-01T17:19:10.539Z,93.10
2017-12-01T17:21:36.854Z,93.00
2017-12-01T17:24:03.153Z,92.60
2017-12-01T17:26:29.889Z,92.90
2017-12-01T17:28:56.164Z,93.10
2017-12-01T17:31:23.230Z,93.10
2017-12-01T17:33:49.597Z,93.30
2017-12-01T17:36:16.671Z,93.30
2017-12-01T17:38:43.026Z,93.30
2017-12-01T17:41:09.403Z,93.40
2017-12-01T17:43:35.905Z,93.70
2017-12-01T17:46:02.471Z,93.80
2017-12-01T17:48:28.793Z,93.80
2017-12-01T17:50:55.877Z,94.20
2017-12-01T17:53:22.138Z,94.20
2017-12-01T17:55:48.511Z,94.20
2017-12-01T17:58:14.942Z,94.20
2017-12-01T18:00:42.007Z,94.70
2017-12-01T18:03:08.451Z,94.60
2017-12-01T18:05:34.823Z,94.70
2017-12-01T18:08:01.153Z,94.90
2017-12-01T18:10:27.514Z,94.80
2017-12-01T18:12:54.737Z,94.90
2017-12-01T18:15:21.123Z,94.80
2017-12-01T18:17:47.346Z,94.80
2017-12-01T18:20:13.657Z,94.80
2017-12-01T18:22:39.918Z,94.90
2017-12-01T18:25:06.206Z,94.90
2017-12-01T18:27:33.353Z,95.20
2017-12-01T18:29:59.616Z,95.10
2017-12-01T18:32:27.587Z,95.20
2017-12-01T18:34:53.857Z,95.20
2017-12-01T18:37:20.173Z,95.30
2017-12-01T18:39:46.536Z,95.30
2017-12-01T18:42:13.542Z,95.60
2017-12-01T18:44:40.155Z,95.60
2017-12-01T18:47:07.265Z,95.30
2017-12-01T18:49:34.280Z,95.50
2017-12-01T18:52:00.732Z,95.50
2017-12-01T18:54:28.704Z,95.30
2017-12-01T18:56:55.102Z,95.30
2017-12-01T18:59:21.456Z,95.50
2017-12-01T19:01:47.838Z,95.60
2017-12-01T19:04:14.181Z,95.80
2017-12-01T19:06:40.498Z,96.00
2017-12-01T19:09:06.779Z,95.90
2017-12-01T19:11:33.885Z,95.80
2017-12-01T19:14:00.170Z,95.80
2017-12-01T19:16:27.467Z,95.70
2017-12-01T19:18:53.800Z,95.70
2017-12-01T19:21:20.594Z,95.60
2017-12-01T19:23:47.672Z,95.40
2017-12-01T19:26:13.937Z,95.40
2017-12-01T19:28:40.244Z,95.50
2017-12-01T19:31:06.508Z,95.60
2017-12-01T19:33:32.832Z,95.60
2017-12-01T19:36:00.059Z,95.30
2017-12-01T19:38:27.009Z,95.30
2017-12-01T19:40:53.286Z,95.60
2017-12-01T19:43:20.250Z,95.60
2017-12-01T19:45:46.531Z,95.60
2017-12-01T19:48:12.851Z,95.60
2017-12-01T19:50:39.144Z,95.60
2017-12-01T19:53:05.424Z,95.50
2017-12-01T19:55:31.694Z,95.60
2017-12-01T19:57:58.689Z,95.50
2017-12-01T20:00:24.928Z,95.50
2017-12-01T20:02:51.186Z,95.50
2017-12-01T20:05:18.378Z,95.50
2017-12-01T20:07:44.632Z,95.40
2017-12-01T20:10:10.990Z,95.60
2017-12-01T20:12:37.313Z,95.60
2017-12-01T20:15:03.657Z,95.20
2017-12-01T20:17:30.651Z,95.70
2017-12-01T20:19:56.990Z,95.60
2017-12-01T20:22:23.215Z,95.80
2017-12-01T20:24:49.507Z,95.90
2017-12-01T20:27:15.966Z,96.10
2017-12-01T20:29:42.654Z,96.10
2017-12-01T20:32:09.670Z,96.00
2017-12-01T20:34:36.689Z,96.00
2017-12-01T20:37:03.150Z,96.30
2017-12-01T20:39:32.305Z,96.00
2017-12-01T20:41:59.750Z,95.90
2017-12-01T20:44:26.063Z,96.00
2017-12-01T20:46:52.509Z,96.10
2017-12-01T20:49:19.523Z,96.10
2017-12-01T20:51:46.900Z,96.10
2017-12-01T20:54:14.385Z,96.10
2017-12-01T20:56:40.983Z,95.90
2017-12-01T20:59:07.311Z,95.90
2017-12-01T21:01:34.096Z,95.80
2017-12-01T21:04:00.425Z,96.00
2017-12-01T21:06:26.682Z,96.10
2017-12-01T21:08:53.860Z,96.10
2017-12-01T21:11:20.861Z,96.10
2017-12-01T21:13:47.160Z,96.10
2017-12-01T21:16:13.612Z,96.10
2017-12-01T21:18:39.924Z,96.10
2017-12-01T21:21:06.309Z,96.00
2017-12-01T21:23:33.419Z,96.20
2017-12-01T21:25:59.734Z,96.20
2017-12-01T21:28:26.215Z,96.10
2017-12-01T21:30:52.497Z,96.20
2017-12-01T21:33:19.659Z,96.00
2017-12-01T21:35:46.053Z,96.00
2017-12-01T21:38:13.222Z,96.10
2017-12-01T21:40:40.313Z,96.00
2017-12-01T21:43:06.568Z,96.00
2017-12-01T21:45:32.922Z,96.00
2017-12-01T21:48:00.024Z,96.10
2017-12-01T21:50:26.266Z,96.10
2017-12-01T21:52:52.534Z,96.10
2017-12-01T21:55:19.469Z,96.00
2017-12-01T21:57:46.573Z,95.90
2017-12-01T22:00:12.883Z,95.90
2017-12-01T22:02:39.122Z,96.00
2017-12-01T22:05:05.361Z,95.90
2017-12-01T22:07:31.754Z,95.80
2017-12-01T22:09:58.037Z,95.90
2017-12-01T22:12:24.379Z,96.00
2017-12-01T22:14:50.715Z,95.90
2017-12-01T22:17:17.086Z,96.00
2017-12-01T22:19:43.378Z,96.00
2017-12-01T22:22:09.955Z,96.00
2017-12-01T22:24:36.204Z,96.00
2017-12-01T22:27:02.785Z,96.00
2017-12-01T22:29:29.807Z,96.20
2017-12-01T22:31:56.090Z,96.20
2017-12-01T22:34:22.461Z,96.20
2017-12-01T22:36:48.760Z,96.10
2017-12-01T22:39:15.359Z,96.20
2017-12-01T22:41:42.458Z,96.10
2017-12-01T22:44:08.720Z,96.10
2017-12-01T22:46:35.067Z,96.20
2017-12-01T22:49:02.294Z,95.90
2017-12-01T22:51:32.252Z,95.80
2017-12-01T22:54:00.351Z,96.00
2017-12-01T22:56:27.408Z,96.00
2017-12-01T22:58:53.733Z,96.00
2017-12-01T23:01:20.002Z,96.00
2017-12-01T23:03:47.698Z,96.10
2017-12-01T23:06:14.007Z,96.10
2017-12-01T23:08:40.229Z,95.90
2017-12-01T23:11:06.582Z,96.00
2017-12-01T23:13:32.869Z,96.10
2017-12-01T23:15:59.504Z,96.00
2017-12-01T23:18:25.811Z,96.10
2017-12-01T23:20:52.051Z,96.20
2017-12-01T23:23:19.122Z,96.50
2017-12-01T23:25:45.386Z,96.30
2017-12-01T23:28:11.620Z,96.30
2017-12-01T23:30:37.927Z,96.10
2017-12-01T23:33:04.252Z,96.20
2017-12-01T23:35:30.552Z,96.10
2017-12-01T23:37:56.820Z,96.20
2017-12-01T23:40:23.087Z,96.30
2017-12-01T23:42:49.406Z,96.30
2017-12-01T23:45:15.679Z,96.40
2017-12-01T23:47:42.749Z,96.30
2017-12-01T23:50:09.168Z,96.20
2017-12-01T23:52:35.642Z,96.20
2017-12-01T23:55:01.874Z,96.20
2017-12-01T23:57:28.395Z,96.30
2017-12-01T23:59:54.598Z,96.20
